sensor_id;sensor_type;location;lat;lon;timestamp;temperature;humidity
36548;DHT22;22551;52.206;4.856;2023-07-31T00:04:02;16.90;99.90
36548;DHT22;22551;52.206;4.856;2023-07-31T00:09:06;17.00;99.90
36548;DHT22;22551;52.206;4.856;2023-07-31T00:14:08;17.00;99.90
36548;DHT22;22551;52.206;4.856;2023-07-31T00:19:11;17.00;99.90
36548;DHT22;22551;52.206;4.856;2023-07-31T00:24:14;17.00;99.90
36548;DHT22;22551;52.206;4.856;2023-07-31T00:29:17;17.00;99.90
36548;DHT22;22551;52.206;4.856;2023-07-31T00:34:19;17.00;99.90
36548;DHT22;22551;52.206;4.856;2023-07-31T00:39:24;16.90;99.90
36548;DHT22;22551;52.206;4.856;2023-07-31T00:44:29;16.80;99.90
36548;DHT22;22551;52.206;4.856;2023-07-31T00:49:33;16.70;99.90
36548;DHT22;22551;52.206;4.856;2023-07-31T00:54:39;16.70;99.90
36548;DHT22;22551;52.206;4.856;2023-07-31T00:59:43;16.60;99.90
36548;DHT22;22551;52.206;4.856;2023-07-31T01:04:47;16.50;99.90
36548;DHT22;22551;52.206;4.856;2023-07-31T01:10:00;16.50;99.90
36548;DHT22;22551;52.206;4.856;2023-07-31T01:15:07;16.50;99.90
36548;DHT22;22551;52.206;4.856;2023-07-31T01:20:13;16.60;99.90
36548;DHT22;22551;52.206;4.856;2023-07-31T01:25:33;16.60;99.90
36548;DHT22;22551;52.206;4.856;2023-07-31T01:30:51;16.70;99.90
36548;DHT22;22551;52.206;4.856;2023-07-31T01:35:58;16.80;99.90
36548;DHT22;22551;52.206;4.856;2023-07-31T01:41:03;16.80;99.90
36548;DHT22;22551;52.206;4.856;2023-07-31T01:46:06;16.80;99.90
36548;DHT22;22551;52.206;4.856;2023-07-31T01:51:09;16.80;99.90
36548;DHT22;22551;52.206;4.856;2023-07-31T01:56:15;16.70;99.90
36548;DHT22;22551;52.206;4.856;2023-07-31T02:01:19;16.80;99.90
36548;DHT22;22551;52.206;4.856;2023-07-31T02:06:22;16.80;99.90
36548;DHT22;22551;52.206;4.856;2023-07-31T02:11:28;16.70;99.90
36548;DHT22;22551;52.206;4.856;2023-07-31T02:16:35;16.70;99.90
36548;DHT22;22551;52.206;4.856;2023-07-31T02:21:39;16.70;99.90
36548;DHT22;22551;52.206;4.856;2023-07-31T02:26:43;16.70;99.90
36548;DHT22;22551;52.206;4.856;2023-07-31T02:31:45;16.70;99.90
36548;DHT22;22551;52.206;4.856;2023-07-31T02:36:48;16.70;99.90
36548;DHT22;22551;52.206;4.856;2023-07-31T02:41:51;16.80;99.90
36548;DHT22;22551;52.206;4.856;2023-07-31T02:46:54;16.70;99.90
36548;DHT22;22551;52.206;4.856;2023-07-31T02:51:56;16.70;99.90
36548;DHT22;22551;52.206;4.856;2023-07-31T02:56:59;16.80;99.90
36548;DHT22;22551;52.206;4.856;2023-07-31T03:02:02;16.70;99.90
36548;DHT22;22551;52.206;4.856;2023-07-31T03:07:07;16.80;99.90
36548;DHT22;22551;52.206;4.856;2023-07-31T03:12:11;16.80;99.90
36548;DHT22;22551;52.206;4.856;2023-07-31T03:17:13;16.80;99.90
36548;DHT22;22551;52.206;4.856;2023-07-31T03:22:15;16.80;99.90
36548;DHT22;22551;52.206;4.856;2023-07-31T03:27:20;16.80;99.90
36548;DHT22;22551;52.206;4.856;2023-07-31T03:32:22;16.80;99.90
36548;DHT22;22551;52.206;4.856;2023-07-31T03:37:24;16.70;99.90
36548;DHT22;22551;52.206;4.856;2023-07-31T03:42:28;16.70;99.90
36548;DHT22;22551;52.206;4.856;2023-07-31T03:47:30;16.80;99.90
36548;DHT22;22551;52.206;4.856;2023-07-31T03:52:33;16.70;99.90
36548;DHT22;22551;52.206;4.856;2023-07-31T03:57:36;16.70;99.90
36548;DHT22;22551;52.206;4.856;2023-07-31T04:02:38;16.70;99.90
36548;DHT22;22551;52.206;4.856;2023-07-31T04:07:41;16.70;99.90
36548;DHT22;22551;52.206;4.856;2023-07-31T04:12:44;16.70;99.90
36548;DHT22;22551;52.206;4.856;2023-07-31T04:17:46;16.60;99.90
36548;DHT22;22551;52.206;4.856;2023-07-31T04:22:49;16.70;99.90
36548;DHT22;22551;52.206;4.856;2023-07-31T04:27:52;16.60;99.90
36548;DHT22;22551;52.206;4.856;2023-07-31T04:32:54;16.70;99.90
36548;DHT22;22551;52.206;4.856;2023-07-31T04:37:57;16.60;99.90
36548;DHT22;22551;52.206;4.856;2023-07-31T04:43:01;16.70;99.90
36548;DHT22;22551;52.206;4.856;2023-07-31T04:48:04;16.70;99.90
36548;DHT22;22551;52.206;4.856;2023-07-31T04:53:06;16.70;99.90
36548;DHT22;22551;52.206;4.856;2023-07-31T04:58:10;16.70;99.90
36548;DHT22;22551;52.206;4.856;2023-07-31T05:03:12;16.70;99.90
36548;DHT22;22551;52.206;4.856;2023-07-31T05:08:15;16.60;99.90
36548;DHT22;22551;52.206;4.856;2023-07-31T05:13:19;16.50;99.90
36548;DHT22;22551;52.206;4.856;2023-07-31T05:18:21;16.40;99.90
36548;DHT22;22551;52.206;4.856;2023-07-31T05:23:24;16.40;99.90
36548;DHT22;22551;52.206;4.856;2023-07-31T05:28:27;16.40;99.90
36548;DHT22;22551;52.206;4.856;2023-07-31T05:33:29;16.40;99.90
36548;DHT22;22551;52.206;4.856;2023-07-31T05:38:32;16.40;99.90
36548;DHT22;22551;52.206;4.856;2023-07-31T05:43:36;16.30;99.90
36548;DHT22;22551;52.206;4.856;2023-07-31T05:48:38;16.40;99.90
36548;DHT22;22551;52.206;4.856;2023-07-31T05:53:41;16.40;99.90
36548;DHT22;22551;52.206;4.856;2023-07-31T05:58:45;16.40;99.90
36548;DHT22;22551;52.206;4.856;2023-07-31T06:03:49;16.30;99.90
36548;DHT22;22551;52.206;4.856;2023-07-31T06:08:52;16.40;99.90
36548;DHT22;22551;52.206;4.856;2023-07-31T06:13:55;16.40;99.90
36548;DHT22;22551;52.206;4.856;2023-07-31T06:18:58;16.40;99.90
36548;DHT22;22551;52.206;4.856;2023-07-31T06:24:00;16.50;99.90
36548;DHT22;22551;52.206;4.856;2023-07-31T06:29:04;16.50;99.90
36548;DHT22;22551;52.206;4.856;2023-07-31T06:34:06;16.50;99.90
36548;DHT22;22551;52.206;4.856;2023-07-31T06:39:08;16.60;99.90
36548;DHT22;22551;52.206;4.856;2023-07-31T06:44:12;16.60;99.90
36548;DHT22;22551;52.206;4.856;2023-07-31T06:49:14;16.70;99.90
36548;DHT22;22551;52.206;4.856;2023-07-31T06:54:17;16.70;99.90
36548;DHT22;22551;52.206;4.856;2023-07-31T06:59:20;16.80;99.90
36548;DHT22;22551;52.206;4.856;2023-07-31T07:04:23;16.80;99.90
36548;DHT22;22551;52.206;4.856;2023-07-31T07:09:27;16.90;99.90
36548;DHT22;22551;52.206;4.856;2023-07-31T07:14:31;16.90;99.90
36548;DHT22;22551;52.206;4.856;2023-07-31T07:19:34;16.90;99.90
36548;DHT22;22551;52.206;4.856;2023-07-31T07:24:36;16.90;99.90
36548;DHT22;22551;52.206;4.856;2023-07-31T07:29:40;16.90;99.90
36548;DHT22;22551;52.206;4.856;2023-07-31T07:34:43;17.00;99.90
36548;DHT22;22551;52.206;4.856;2023-07-31T07:39:47;17.10;99.90
36548;DHT22;22551;52.206;4.856;2023-07-31T07:44:51;17.10;99.90
36548;DHT22;22551;52.206;4.856;2023-07-31T07:49:53;17.20;99.90
36548;DHT22;22551;52.206;4.856;2023-07-31T07:54:55;17.20;99.90
36548;DHT22;22551;52.206;4.856;2023-07-31T07:59:59;17.30;99.90
36548;DHT22;22551;52.206;4.856;2023-07-31T08:05:01;17.30;99.90
36548;DHT22;22551;52.206;4.856;2023-07-31T08:10:05;17.30;99.90
36548;DHT22;22551;52.206;4.856;2023-07-31T08:15:09;17.50;99.90
36548;DHT22;22551;52.206;4.856;2023-07-31T08:20:12;17.70;99.90
36548;DHT22;22551;52.206;4.856;2023-07-31T08:25:15;17.80;99.90
36548;DHT22;22551;52.206;4.856;2023-07-31T08:30:19;17.80;99.90
36548;DHT22;22551;52.206;4.856;2023-07-31T08:35:21;17.90;99.90
36548;DHT22;22551;52.206;4.856;2023-07-31T08:40:24;18.00;99.90
36548;DHT22;22551;52.206;4.856;2023-07-31T08:45:32;17.90;99.90
36548;DHT22;22551;52.206;4.856;2023-07-31T08:50:35;18.00;99.90
36548;DHT22;22551;52.206;4.856;2023-07-31T08:55:38;18.00;99.90
36548;DHT22;22551;52.206;4.856;2023-07-31T09:00:43;18.10;99.90
36548;DHT22;22551;52.206;4.856;2023-07-31T09:05:47;18.20;99.90
36548;DHT22;22551;52.206;4.856;2023-07-31T09:10:49;18.20;99.90
36548;DHT22;22551;52.206;4.856;2023-07-31T09:15:53;18.30;99.90
36548;DHT22;22551;52.206;4.856;2023-07-31T09:21:03;18.50;99.90
36548;DHT22;22551;52.206;4.856;2023-07-31T09:26:06;18.50;99.90
36548;DHT22;22551;52.206;4.856;2023-07-31T09:31:11;18.50;99.90
36548;DHT22;22551;52.206;4.856;2023-07-31T09:36:13;18.50;99.90
36548;DHT22;22551;52.206;4.856;2023-07-31T09:41:16;18.70;99.90
36548;DHT22;22551;52.206;4.856;2023-07-31T09:46:21;18.60;99.90
36548;DHT22;22551;52.206;4.856;2023-07-31T09:51:26;18.70;99.90
36548;DHT22;22551;52.206;4.856;2023-07-31T09:56:29;18.70;99.90
36548;DHT22;22551;52.206;4.856;2023-07-31T10:01:35;18.70;99.90
36548;DHT22;22551;52.206;4.856;2023-07-31T10:06:40;18.80;99.90
36548;DHT22;22551;52.206;4.856;2023-07-31T10:11:47;18.90;99.90
36548;DHT22;22551;52.206;4.856;2023-07-31T10:16:58;19.00;99.90
36548;DHT22;22551;52.206;4.856;2023-07-31T10:22:02;19.00;99.90
36548;DHT22;22551;52.206;4.856;2023-07-31T10:27:05;19.00;99.90
36548;DHT22;22551;52.206;4.856;2023-07-31T10:32:11;19.10;99.90
36548;DHT22;22551;52.206;4.856;2023-07-31T10:37:23;19.20;99.90
36548;DHT22;22551;52.206;4.856;2023-07-31T10:42:33;19.40;99.90
36548;DHT22;22551;52.206;4.856;2023-07-31T10:47:38;19.50;99.90
36548;DHT22;22551;52.206;4.856;2023-07-31T10:52:46;19.70;99.90
36548;DHT22;22551;52.206;4.856;2023-07-31T10:57:49;19.70;99.90
36548;DHT22;22551;52.206;4.856;2023-07-31T11:03:03;19.80;99.90
36548;DHT22;22551;52.206;4.856;2023-07-31T11:08:11;19.70;99.90
36548;DHT22;22551;52.206;4.856;2023-07-31T11:13:14;19.50;99.90
36548;DHT22;22551;52.206;4.856;2023-07-31T11:18:18;19.50;99.90
36548;DHT22;22551;52.206;4.856;2023-07-31T11:23:22;19.70;99.90
36548;DHT22;22551;52.206;4.856;2023-07-31T11:28:25;19.90;99.90
36548;DHT22;22551;52.206;4.856;2023-07-31T11:33:29;19.90;99.90
36548;DHT22;22551;52.206;4.856;2023-07-31T11:38:32;19.80;99.90
36548;DHT22;22551;52.206;4.856;2023-07-31T11:43:35;19.80;99.90
36548;DHT22;22551;52.206;4.856;2023-07-31T11:48:39;20.00;99.90
36548;DHT22;22551;52.206;4.856;2023-07-31T11:53:44;20.10;99.90
36548;DHT22;22551;52.206;4.856;2023-07-31T11:58:51;20.30;99.90
36548;DHT22;22551;52.206;4.856;2023-07-31T12:03:57;20.30;99.90
36548;DHT22;22551;52.206;4.856;2023-07-31T12:09:02;20.40;99.90
36548;DHT22;22551;52.206;4.856;2023-07-31T12:14:05;20.30;99.90
36548;DHT22;22551;52.206;4.856;2023-07-31T12:19:10;20.20;99.90
36548;DHT22;22551;52.206;4.856;2023-07-31T12:24:12;20.30;99.90
36548;DHT22;22551;52.206;4.856;2023-07-31T12:29:15;20.40;99.90
36548;DHT22;22551;52.206;4.856;2023-07-31T12:34:20;20.40;99.90
36548;DHT22;22551;52.206;4.856;2023-07-31T12:39:23;20.20;99.90
36548;DHT22;22551;52.206;4.856;2023-07-31T12:44:26;19.90;99.90
36548;DHT22;22551;52.206;4.856;2023-07-31T12:49:29;19.70;99.90
36548;DHT22;22551;52.206;4.856;2023-07-31T12:54:32;19.80;99.90
36548;DHT22;22551;52.206;4.856;2023-07-31T12:59:36;20.50;99.90
36548;DHT22;22551;52.206;4.856;2023-07-31T13:04:39;20.70;99.90
36548;DHT22;22551;52.206;4.856;2023-07-31T13:09:42;20.60;99.90
36548;DHT22;22551;52.206;4.856;2023-07-31T13:14:44;20.70;99.90
36548;DHT22;22551;52.206;4.856;2023-07-31T13:19:48;20.90;99.90
36548;DHT22;22551;52.206;4.856;2023-07-31T13:24:50;20.80;99.90
36548;DHT22;22551;52.206;4.856;2023-07-31T13:29:52;20.80;99.90
36548;DHT22;22551;52.206;4.856;2023-07-31T13:34:56;20.70;99.90
36548;DHT22;22551;52.206;4.856;2023-07-31T13:39:58;20.40;99.90
36548;DHT22;22551;52.206;4.856;2023-07-31T13:45:01;19.90;99.90
36548;DHT22;22551;52.206;4.856;2023-07-31T13:50:05;19.60;99.90
36548;DHT22;22551;52.206;4.856;2023-07-31T13:55:08;19.60;99.90
36548;DHT22;22551;52.206;4.856;2023-07-31T14:00:12;19.60;99.90
36548;DHT22;22551;52.206;4.856;2023-07-31T14:05:16;19.50;99.90
36548;DHT22;22551;52.206;4.856;2023-07-31T14:10:19;19.60;99.90
36548;DHT22;22551;52.206;4.856;2023-07-31T14:15:21;19.50;99.90
36548;DHT22;22551;52.206;4.856;2023-07-31T14:20:25;19.50;99.90
36548;DHT22;22551;52.206;4.856;2023-07-31T14:25:27;19.40;99.90
36548;DHT22;22551;52.206;4.856;2023-07-31T14:30:30;19.40;99.90
36548;DHT22;22551;52.206;4.856;2023-07-31T14:35:35;19.30;99.90
36548;DHT22;22551;52.206;4.856;2023-07-31T14:40:37;19.40;99.90
36548;DHT22;22551;52.206;4.856;2023-07-31T14:45:39;19.30;99.90
36548;DHT22;22551;52.206;4.856;2023-07-31T14:50:43;19.20;99.90
36548;DHT22;22551;52.206;4.856;2023-07-31T14:55:46;19.10;99.90
36548;DHT22;22551;52.206;4.856;2023-07-31T15:00:48;19.10;99.90
36548;DHT22;22551;52.206;4.856;2023-07-31T15:05:52;18.90;99.90
36548;DHT22;22551;52.206;4.856;2023-07-31T15:10:54;18.60;99.90
36548;DHT22;22551;52.206;4.856;2023-07-31T15:15:58;18.60;99.90
36548;DHT22;22551;52.206;4.856;2023-07-31T15:21:03;18.60;99.90
36548;DHT22;22551;52.206;4.856;2023-07-31T15:31:17;18.30;99.90
36548;DHT22;22551;52.206;4.856;2023-07-31T15:36:21;18.40;99.90
36548;DHT22;22551;52.206;4.856;2023-07-31T15:41:23;18.50;99.90
36548;DHT22;22551;52.206;4.856;2023-07-31T15:46:26;18.50;99.90
36548;DHT22;22551;52.206;4.856;2023-07-31T15:51:30;18.50;99.90
36548;DHT22;22551;52.206;4.856;2023-07-31T15:56:33;18.40;99.90
36548;DHT22;22551;52.206;4.856;2023-07-31T16:01:35;18.30;99.90
36548;DHT22;22551;52.206;4.856;2023-07-31T16:06:39;18.10;99.90
36548;DHT22;22551;52.206;4.856;2023-07-31T16:11:41;17.80;99.90
36548;DHT22;22551;52.206;4.856;2023-07-31T16:16:44;17.80;99.90
36548;DHT22;22551;52.206;4.856;2023-07-31T16:21:48;18.00;99.90
36548;DHT22;22551;52.206;4.856;2023-07-31T16:26:51;18.10;99.90
36548;DHT22;22551;52.206;4.856;2023-07-31T16:31:53;18.30;99.90
36548;DHT22;22551;52.206;4.856;2023-07-31T16:36:56;18.30;99.90
36548;DHT22;22551;52.206;4.856;2023-07-31T16:41:59;18.30;99.90
36548;DHT22;22551;52.206;4.856;2023-07-31T16:47:01;18.40;99.90
36548;DHT22;22551;52.206;4.856;2023-07-31T16:52:05;18.50;99.90
36548;DHT22;22551;52.206;4.856;2023-07-31T16:57:08;18.40;99.90
36548;DHT22;22551;52.206;4.856;2023-07-31T17:02:10;18.50;99.90
36548;DHT22;22551;52.206;4.856;2023-07-31T17:07:15;18.50;99.90
36548;DHT22;22551;52.206;4.856;2023-07-31T17:12:18;18.50;99.90
36548;DHT22;22551;52.206;4.856;2023-07-31T17:17:20;18.50;99.90
36548;DHT22;22551;52.206;4.856;2023-07-31T17:22:25;18.60;99.90
36548;DHT22;22551;52.206;4.856;2023-07-31T17:27:27;18.60;99.90
36548;DHT22;22551;52.206;4.856;2023-07-31T17:32:30;18.70;99.90
36548;DHT22;22551;52.206;4.856;2023-07-31T17:37:33;18.60;99.90
36548;DHT22;22551;52.206;4.856;2023-07-31T17:42:36;18.50;99.90
36548;DHT22;22551;52.206;4.856;2023-07-31T17:47:38;18.50;99.90
36548;DHT22;22551;52.206;4.856;2023-07-31T17:52:42;18.50;99.90
36548;DHT22;22551;52.206;4.856;2023-07-31T17:57:44;18.50;99.90
36548;DHT22;22551;52.206;4.856;2023-07-31T18:02:46;18.50;99.90
36548;DHT22;22551;52.206;4.856;2023-07-31T18:07:50;18.40;99.90
36548;DHT22;22551;52.206;4.856;2023-07-31T18:12:54;18.40;99.90
36548;DHT22;22551;52.206;4.856;2023-07-31T18:17:56;18.40;99.90
36548;DHT22;22551;52.206;4.856;2023-07-31T18:23:00;18.30;99.90
36548;DHT22;22551;52.206;4.856;2023-07-31T18:28:03;18.40;99.90
36548;DHT22;22551;52.206;4.856;2023-07-31T18:33:05;18.40;99.90
36548;DHT22;22551;52.206;4.856;2023-07-31T18:38:09;18.40;99.90
36548;DHT22;22551;52.206;4.856;2023-07-31T18:43:11;18.40;99.90
36548;DHT22;22551;52.206;4.856;2023-07-31T18:48:13;18.50;99.90
36548;DHT22;22551;52.206;4.856;2023-07-31T18:53:17;18.50;99.90
36548;DHT22;22551;52.206;4.856;2023-07-31T18:58:19;18.50;99.90
36548;DHT22;22551;52.206;4.856;2023-07-31T19:03:22;18.40;99.90
36548;DHT22;22551;52.206;4.856;2023-07-31T19:08:26;18.30;99.90
36548;DHT22;22551;52.206;4.856;2023-07-31T19:13:29;18.30;99.90
36548;DHT22;22551;52.206;4.856;2023-07-31T19:18:31;18.20;99.90
36548;DHT22;22551;52.206;4.856;2023-07-31T19:23:36;18.10;99.90
36548;DHT22;22551;52.206;4.856;2023-07-31T19:28:38;18.00;99.90
36548;DHT22;22551;52.206;4.856;2023-07-31T19:33:41;18.00;99.90
36548;DHT22;22551;52.206;4.856;2023-07-31T19:38:44;17.80;99.90
36548;DHT22;22551;52.206;4.856;2023-07-31T19:43:47;17.40;99.90
36548;DHT22;22551;52.206;4.856;2023-07-31T19:48:49;17.30;99.90
36548;DHT22;22551;52.206;4.856;2023-07-31T19:53:55;17.30;99.90
36548;DHT22;22551;52.206;4.856;2023-07-31T19:58:57;17.20;99.90
36548;DHT22;22551;52.206;4.856;2023-07-31T20:03:59;17.20;99.90
36548;DHT22;22551;52.206;4.856;2023-07-31T20:09:03;17.20;99.90
36548;DHT22;22551;52.206;4.856;2023-07-31T20:14:06;17.20;99.90
36548;DHT22;22551;52.206;4.856;2023-07-31T20:19:08;17.20;99.90
36548;DHT22;22551;52.206;4.856;2023-07-31T20:24:12;17.20;99.90
36548;DHT22;22551;52.206;4.856;2023-07-31T20:29:15;17.20;99.90
36548;DHT22;22551;52.206;4.856;2023-07-31T20:34:17;17.20;99.90
36548;DHT22;22551;52.206;4.856;2023-07-31T20:39:21;17.10;99.90
36548;DHT22;22551;52.206;4.856;2023-07-31T20:44:23;17.10;99.90
36548;DHT22;22551;52.206;4.856;2023-07-31T20:49:26;17.00;99.90
36548;DHT22;22551;52.206;4.856;2023-07-31T20:54:31;17.10;99.90
36548;DHT22;22551;52.206;4.856;2023-07-31T20:59:33;17.10;99.90
36548;DHT22;22551;52.206;4.856;2023-07-31T21:04:37;17.00;99.90
36548;DHT22;22551;52.206;4.856;2023-07-31T21:09:41;16.90;99.90
36548;DHT22;22551;52.206;4.856;2023-07-31T21:14:45;16.90;99.90
36548;DHT22;22551;52.206;4.856;2023-07-31T21:19:47;16.90;99.90
36548;DHT22;22551;52.206;4.856;2023-07-31T21:24:52;16.90;99.90
36548;DHT22;22551;52.206;4.856;2023-07-31T21:29:54;16.90;99.90
36548;DHT22;22551;52.206;4.856;2023-07-31T21:34:58;16.90;99.90
36548;DHT22;22551;52.206;4.856;2023-07-31T21:40:02;16.90;99.90
36548;DHT22;22551;52.206;4.856;2023-07-31T21:45:06;16.90;99.90
36548;DHT22;22551;52.206;4.856;2023-07-31T21:50:09;16.90;99.90
36548;DHT22;22551;52.206;4.856;2023-07-31T21:55:13;16.90;99.90
36548;DHT22;22551;52.206;4.856;2023-07-31T22:00:16;16.80;99.90
36548;DHT22;22551;52.206;4.856;2023-07-31T22:05:18;16.40;99.90
36548;DHT22;22551;52.206;4.856;2023-07-31T22:10:22;16.10;99.90
36548;DHT22;22551;52.206;4.856;2023-07-31T22:15:24;16.00;99.90
36548;DHT22;22551;52.206;4.856;2023-07-31T22:20:27;16.00;99.90
36548;DHT22;22551;52.206;4.856;2023-07-31T22:25:30;16.00;99.90
36548;DHT22;22551;52.206;4.856;2023-07-31T22:30:33;16.00;99.90
36548;DHT22;22551;52.206;4.856;2023-07-31T22:35:36;15.90;99.90
36548;DHT22;22551;52.206;4.856;2023-07-31T22:40:39;15.90;99.90
36548;DHT22;22551;52.206;4.856;2023-07-31T22:45:44;15.90;99.90
36548;DHT22;22551;52.206;4.856;2023-07-31T22:50:47;15.90;99.90
36548;DHT22;22551;52.206;4.856;2023-07-31T22:55:51;15.80;99.90
36548;DHT22;22551;52.206;4.856;2023-07-31T23:01:01;15.80;99.90
36548;DHT22;22551;52.206;4.856;2023-07-31T23:06:04;15.80;99.90
36548;DHT22;22551;52.206;4.856;2023-07-31T23:11:07;15.80;99.90
36548;DHT22;22551;52.206;4.856;2023-07-31T23:16:10;15.80;99.90
36548;DHT22;22551;52.206;4.856;2023-07-31T23:21:12;15.80;99.90
36548;DHT22;22551;52.206;4.856;2023-07-31T23:26:16;15.80;99.90
36548;DHT22;22551;52.206;4.856;2023-07-31T23:31:18;15.70;99.90
36548;DHT22;22551;52.206;4.856;2023-07-31T23:36:20;15.80;99.90
36548;DHT22;22551;52.206;4.856;2023-07-31T23:41:24;15.70;99.90
36548;DHT22;22551;52.206;4.856;2023-07-31T23:46:26;15.70;99.90
36548;DHT22;22551;52.206;4.856;2023-07-31T23:51:31;15.60;99.90
36548;DHT22;22551;52.206;4.856;2023-07-31T23:56:35;15.60;99.90
